| time (UTC) | temp F | wind direction | speed MPH | gust MPH | rain 1hr in | rain 24hr in | rain mn in | humidity % | barometer mb |
| 20260904063017 | 74 | 222 | 1.0 | 5.0 | 0.00 | 0.21 | 0.00 | 90 | 1011.8 |
| 20260904061535 | 74 | 265 | 0.0 | 3.0 | 0.00 | 0.21 | 0.00 | 90 | 1011.9 |
| 20260904060016 | 74 | 256 | 1.0 | 6.0 | 0.00 | 0.21 | 0.00 | 90 | 1012.0 |
| 20260904054520 | 74 | 278 | 0.0 | 5.0 | 0.00 | 0.30 | 0.00 | 91 | 1012.2 |
| 20260904053013 | 74 | 260 | 0.0 | 4.0 | 0.00 | 0.30 | 0.00 | 90 | 1012.5 |
| 20260904051510 | 74 | 260 | 0.0 | 3.0 | 0.00 | 0.30 | 0.00 | 89 | 1012.3 |
| 20260904050007 | 75 | 206 | 0.0 | 5.0 | 0.00 | 0.30 | 0.00 | 89 | 1012.4 |
| 20260904044506 | 75 | 224 | 1.0 | 6.0 | 0.01 | 0.30 | 0.00 | 88 | 1012.5 |
| 20260904043107 | 75 | 285 | 2.0 | 8.0 | 0.01 | 0.30 | 0.00 | 89 | 1012.3 |
| 20260904041555 | 75 | 337 | 1.0 | 5.0 | 0.01 | 0.30 | 0.00 | 91 | 1012.5 |
| 20260904040051 | 75 | 18 | 0.0 | 2.0 | 0.01 | 0.30 | 0.00 | 90 | 1013.0 |
| 20260904034550 | 75 | 293 | 0.0 | 3.0 | 0.00 | 0.28 | 0.28 | 91 | 1013.3 |
| 20260904033048 | 75 | 255 | 0.0 | 2.0 | 0.00 | 0.28 | 0.28 | 92 | 1013.6 |
| 20260904031552 | 75 | 224 | 2.0 | 7.0 | 0.00 | 0.28 | 0.28 | 92 | 1013.6 |
| 20260904030053 | 74 | 237 | 0.0 | 0.0 | 0.00 | 0.28 | 0.28 | 91 | 1013.9 |
| 20260904024547 | 74 | 181 | 0.0 | 0.0 | 0.00 | 0.28 | 0.28 | 91 | 1013.7 |
| 20260904023047 | 74 | 147 | 0.0 | 0.0 | 0.00 | 0.28 | 0.28 | 91 | 1013.7 |
| 20260904021546 | 74 | 147 | 0.0 | 0.0 | 0.00 | 0.28 | 0.28 | 91 | 1013.7 |
| 20260904020047 | 74 | 147 | 0.0 | 0.0 | 0.00 | 0.28 | 0.28 | 90 | 1013.5 |
| 20260904014551 | 75 | 147 | 0.0 | 0.0 | 0.00 | 0.28 | 0.28 | 90 | 1013.3 |
| 20260904013047 | 75 | 137 | 0.0 | 0.0 | 0.00 | 0.28 | 0.28 | 90 | 1013.7 |
| 20260904011546 | 75 | 233 | 0.0 | 0.0 | 0.00 | 0.28 | 0.28 | 90 | 1013.7 |
| 20260904010045 | 75 | 258 | 0.0 | 0.0 | 0.00 | 0.28 | 0.28 | 89 | 1014.2 |
| 20260904004545 | 75 | 236 | 0.0 | 0.0 | 0.00 | 0.28 | 0.28 | 89 | 1014.1 |
| 20260904003047 | 76 | 233 | 0.0 | 0.0 | 0.00 | 0.28 | 0.28 | 88 | 1014.2 |
| 20260904001542 | 76 | 222 | 0.0 | 2.0 | 0.00 | 0.28 | 0.28 | 88 | 1014.0 |
| 20260904000045 | 77 | 236 | 0.0 | 0.0 | 0.00 | 0.28 | 0.28 | 86 | 1013.9 |
| 20260903234542 | 78 | 236 | 0.0 | 0.0 | 0.00 | 0.28 | 0.28 | 85 | 1013.4 |
| 20260903233047 | 79 | 239 | 0.0 | 0.0 | 0.00 | 0.28 | 0.28 | 84 | 1013.6 |
| 20260903231541 | 80 | 228 | 0.0 | 2.0 | 0.00 | 0.28 | 0.28 | 83 | 1013.8 |
| 20260903230046 | 81 | 225 | 0.0 | 1.0 | 0.00 | 0.28 | 0.28 | 80 | 1013.6 |
| 20260903224539 | 82 | 229 | 0.0 | 5.0 | 0.00 | 0.28 | 0.28 | 77 | 1013.2 |
| 20260903223040 | 83 | 266 | 0.0 | 4.0 | 0.00 | 0.28 | 0.28 | 74 | 1013.1 |
| 20260903221539 | 84 | 235 | 0.0 | 4.0 | 0.00 | 0.28 | 0.28 | 72 | 1013.1 |
| 20260903220044 | 86 | 224 | 0.0 | 5.0 | 0.00 | 0.28 | 0.28 | 75 | 1013.1 |
| 20260903214543 | 86 | 233 | 0.0 | 8.0 | 0.00 | 0.28 | 0.28 | 77 | 1013.2 |
| 20260903213038 | 86 | 214 | 0.0 | 2.0 | 0.00 | 0.28 | 0.28 | 77 | 1012.9 |
| 20260903211539 | 87 | 193 | 1.0 | 6.0 | 0.00 | 0.28 | 0.28 | 75 | 1012.9 |
| 20260903210043 | 87 | 214 | 1.0 | 6.0 | 0.00 | 0.28 | 0.28 | 74 | 1012.8 |
| 20260903204535 | 87 | 216 | 0.0 | 7.0 | 0.00 | 0.28 | 0.28 | 73 | 1013.0 |
| 20260903203033 | 87 | 237 | 0.0 | 7.0 | 0.00 | 0.28 | 0.28 | 75 | 1013.1 |
| 20260903201533 | 87 | 235 | 0.0 | 2.0 | 0.00 | 0.28 | 0.28 | 77 | 1013.4 |
| 20260903200059 | 86 | 297 | 1.0 | 12.0 | 0.00 | 0.28 | 0.28 | 71 | 1013.6 |
| 20260903194527 | 86 | 298 | 0.0 | 13.0 | 0.00 | 0.28 | 0.28 | 71 | 1013.7 |
| 20260903193026 | 86 | 310 | 0.0 | 2.0 | 0.00 | 0.28 | 0.28 | 73 | 1013.8 |
| 20260903191527 | 86 | 253 | 0.0 | 1.0 | 0.00 | 0.28 | 0.28 | 75 | 1014.0 |
| 20260903190020 | 85 | 243 | 1.0 | 6.0 | 0.00 | 0.28 | 0.28 | 76 | 1014.2 |
| 20260903184518 | 85 | 239 | 0.0 | 7.0 | 0.00 | 0.32 | 0.28 | 77 | 1014.4 |
| 20260903183014 | 84 | 248 | 0.0 | 8.0 | 0.00 | 0.32 | 0.28 | 79 | 1014.6 |
| 20260903181512 | 83 | 227 | 0.0 | 8.0 | 0.00 | 0.32 | 0.28 | 79 | 1014.8 |
| 20260903180009 | 82 | 247 | 0.0 | 8.0 | 0.00 | 0.32 | 0.28 | 80 | 1014.7 |
| 20260903174506 | 81 | 317 | 0.0 | 4.0 | 0.00 | 0.68 | 0.28 | 82 | 1014.7 |
| 20260903173004 | 80 | 296 | 0.0 | 5.0 | 0.00 | 0.68 | 0.28 | 81 | 1014.9 |
| 20260903171616 | 80 | 278 | 0.0 | 3.0 | 0.00 | 0.68 | 0.28 | 82 | 1015.1 |
| 20260903171500 | 80 | 276 | 0.0 | 3.0 | 0.00 | 0.68 | 0.28 | 82 | 1015.2 |
| 20260903170059 | 80 | 295 | 2.0 | 7.0 | 0.00 | 0.68 | 0.28 | 82 | 1015.7 |
| 20260903164604 | 79 | 215 | 1.0 | 8.0 | 0.00 | 0.68 | 0.28 | 88 | 1015.3 |
| 20260903163053 | 78 | 243 | 2.0 | 10.0 | 0.00 | 0.68 | 0.28 | 87 | 1016.0 |
| 20260903161554 | 77 | 208 | 3.0 | 10.0 | 0.00 | 0.68 | 0.28 | 88 | 1016.2 |
| 20260903160047 | 76 | 272 | 1.0 | 10.0 | 0.00 | 0.68 | 0.28 | 88 | 1016.9 |
| 20260903154544 | 75 | 311 | 3.0 | 9.0 | 0.00 | 0.68 | 0.28 | 90 | 1017.1 |
| 20260903153043 | 75 | 282 | 4.0 | 13.0 | 0.00 | 0.68 | 0.28 | 91 | 1017.2 |
| 20260903151543 | 75 | 300 | 4.0 | 14.0 | 0.00 | 0.68 | 0.28 | 91 | 1016.9 |
| 20260903150042 | 75 | 266 | 4.0 | 11.0 | 0.00 | 0.68 | 0.28 | 91 | 1017.2 |
| 20260903144540 | 75 | 230 | 1.0 | 8.0 | 0.00 | 0.68 | 0.28 | 91 | 1016.7 |
| 20260903143101 | 75 | 245 | 1.0 | 11.0 | 0.00 | 0.68 | 0.28 | 93 | 1016.4 |
| 20260903141535 | 75 | 264 | 3.0 | 12.0 | 0.00 | 0.68 | 0.28 | 94 | 1016.2 |
| 20260903140033 | 75 | 226 | 0.0 | 9.0 | 0.00 | 0.68 | 0.28 | 95 | 1016.0 |
| 20260903134523 | 74 | 206 | 2.0 | 17.0 | 0.00 | 0.68 | 0.28 | 95 | 1016.0 |